createdAt,value
2017-09-28T00:00:27.313Z,15.59
2017-09-28T00:01:27.751Z,15.62
2017-09-28T00:02:28.175Z,15.61
2017-09-28T00:03:28.610Z,15.61
2017-09-28T00:04:29.045Z,15.51
2017-09-28T00:05:29.478Z,15.57
2017-09-28T00:06:29.910Z,15.47
2017-09-28T00:07:30.337Z,15.55
2017-09-28T00:08:30.776Z,15.54
2017-09-28T00:09:31.254Z,15.57
2017-09-28T00:10:31.642Z,15.51
2017-09-28T00:11:32.066Z,15.52
2017-09-28T00:12:32.495Z,15.54
2017-09-28T00:13:32.934Z,15.46
2017-09-28T00:14:33.366Z,15.51
2017-09-28T00:15:33.797Z,15.51
2017-09-28T00:16:34.228Z,15.46
2017-09-28T00:17:34.663Z,15.59
2017-09-28T00:18:35.096Z,15.49
2017-09-28T00:19:35.536Z,15.52
2017-09-28T00:20:35.966Z,15.58
2017-09-28T00:21:36.390Z,15.46
2017-09-28T00:22:36.825Z,15.46
2017-09-28T00:23:37.255Z,15.52
2017-09-28T00:24:37.689Z,15.51
2017-09-28T00:25:38.126Z,15.49
2017-09-28T00:26:38.557Z,15.49
2017-09-28T00:27:38.986Z,15.51
2017-09-28T00:28:39.427Z,15.54
2017-09-28T00:29:39.853Z,15.49
2017-09-28T00:30:40.285Z,15.47
2017-09-28T00:31:40.720Z,15.47
2017-09-28T00:32:41.153Z,15.44
2017-09-28T00:33:41.581Z,15.49
2017-09-28T00:34:42.018Z,15.51
2017-09-28T00:35:42.443Z,15.47
2017-09-28T00:36:42.879Z,15.46
2017-09-28T00:37:43.333Z,15.46
2017-09-28T00:38:43.745Z,15.40
2017-09-28T00:39:44.178Z,15.42
2017-09-28T00:40:44.612Z,15.47
2017-09-28T00:41:45.042Z,15.40
2017-09-28T00:42:45.470Z,15.43
2017-09-28T00:43:45.911Z,15.49
2017-09-28T00:44:46.342Z,15.44
2017-09-28T00:45:46.774Z,15.42
2017-09-28T00:46:47.211Z,15.43
2017-09-28T00:47:47.637Z,15.46
2017-09-28T00:48:48.067Z,15.44
2017-09-28T00:49:48.508Z,15.46
2017-09-28T00:50:48.931Z,15.39
2017-09-28T00:51:49.365Z,15.36
2017-09-28T00:52:49.807Z,15.35
2017-09-28T00:53:50.230Z,15.35
2017-09-28T00:54:50.664Z,15.24
2017-09-28T00:55:51.099Z,15.21
2017-09-28T00:56:51.530Z,15.35
2017-09-28T00:57:51.965Z,15.27
2017-09-28T00:58:52.394Z,15.27
2017-09-28T00:59:52.820Z,15.37
2017-09-28T01:00:53.254Z,15.28
2017-09-28T01:01:53.690Z,15.29
2017-09-28T01:02:54.124Z,15.35
2017-09-28T01:03:54.554Z,15.37
2017-09-28T01:04:54.986Z,15.25
2017-09-28T01:05:55.415Z,15.28
2017-09-28T01:06:55.846Z,15.22
2017-09-28T01:07:56.275Z,15.28
2017-09-28T01:08:56.709Z,15.31
2017-09-28T01:09:57.143Z,15.29
2017-09-28T01:10:57.573Z,15.36
2017-09-28T01:11:58.009Z,15.35
2017-09-28T01:12:58.449Z,15.28
2017-09-28T01:13:58.871Z,15.36
2017-09-28T01:14:59.327Z,15.33
2017-09-28T01:15:59.735Z,15.25
2017-09-28T01:17:00.165Z,15.28
2017-09-28T01:18:00.602Z,15.24
2017-09-28T01:19:01.032Z,15.28
2017-09-28T01:20:01.463Z,15.21
2017-09-28T01:21:01.895Z,15.19
2017-09-28T01:22:02.333Z,15.31
2017-09-28T01:23:02.760Z,15.21
2017-09-28T01:24:03.205Z,15.22
2017-09-28T01:25:03.628Z,15.11
2017-09-28T01:26:04.072Z,15.25
2017-09-28T01:27:04.486Z,15.25
2017-09-28T01:28:04.919Z,15.22
2017-09-28T01:29:05.352Z,15.24
2017-09-28T01:30:05.786Z,15.17
2017-09-28T01:31:06.218Z,15.25
2017-09-28T01:32:06.648Z,15.18
2017-09-28T01:33:07.077Z,15.21
2017-09-28T01:34:07.512Z,15.21
2017-09-28T01:35:07.962Z,15.19
2017-09-28T01:36:08.379Z,15.22
2017-09-28T01:37:08.811Z,15.21
2017-09-28T01:38:09.243Z,15.22
2017-09-28T01:39:09.672Z,15.22
2017-09-28T01:40:10.105Z,15.28
2017-09-28T01:41:10.532Z,15.27
2017-09-28T01:42:10.972Z,15.28
2017-09-28T01:43:11.398Z,15.19
2017-09-28T01:44:11.828Z,15.29
2017-09-28T01:45:12.267Z,15.36
2017-09-28T01:46:12.694Z,15.39
2017-09-28T01:47:13.133Z,15.27
2017-09-28T01:48:13.556Z,15.22
2017-09-28T01:49:13.989Z,15.24
2017-09-28T01:50:14.420Z,15.19
2017-09-28T01:51:14.865Z,15.22
2017-09-28T01:52:15.290Z,15.18
2017-09-28T01:53:15.720Z,15.22
2017-09-28T01:54:16.150Z,15.25
2017-09-28T01:55:16.586Z,15.19
2017-09-28T01:56:17.014Z,15.09
2017-09-28T01:57:17.443Z,15.10
2017-09-28T01:58:17.887Z,15.22
2017-09-28T01:59:18.317Z,15.24
2017-09-28T02:00:18.742Z,15.21
2017-09-28T02:01:19.170Z,15.21
2017-09-28T02:02:19.604Z,15.21
2017-09-28T02:03:20.040Z,15.22
2017-09-28T02:04:20.475Z,15.15
2017-09-28T02:05:20.911Z,15.24
2017-09-28T02:06:21.342Z,15.06
2017-09-28T02:07:21.787Z,15.17
2017-09-28T02:08:22.222Z,15.10
2017-09-28T02:09:22.665Z,15.07
2017-09-28T02:10:23.065Z,15.11
2017-09-28T02:11:23.502Z,15.14
2017-09-28T02:12:23.929Z,15.09
2017-09-28T02:13:24.366Z,15.09
2017-09-28T02:14:24.805Z,15.15
2017-09-28T02:15:25.235Z,14.99
2017-09-28T02:16:25.683Z,15.15
2017-09-28T02:17:26.097Z,15.11
2017-09-28T02:18:26.524Z,15.15
2017-09-28T02:19:26.954Z,15.07
2017-09-28T02:20:27.387Z,15.15
2017-09-28T02:21:27.819Z,15.07
2017-09-28T02:22:28.247Z,15.07
2017-09-28T02:23:28.676Z,15.10
2017-09-28T02:24:29.109Z,15.04
2017-09-28T02:25:29.543Z,15.07
2017-09-28T02:26:29.970Z,15.03
2017-09-28T02:27:30.406Z,15.03
2017-09-28T02:28:30.840Z,14.99
2017-09-28T02:29:31.269Z,15.00
2017-09-28T02:30:31.696Z,15.03
2017-09-28T02:31:32.128Z,15.09
2017-09-28T02:32:32.560Z,14.99
2017-09-28T02:33:32.993Z,14.99
2017-09-28T02:34:33.432Z,15.02
2017-09-28T02:35:33.860Z,14.91
2017-09-28T02:36:34.287Z,15.00
2017-09-28T02:37:34.720Z,14.94
2017-09-28T02:38:35.152Z,14.85
2017-09-28T02:39:35.587Z,14.88
2017-09-28T02:40:36.021Z,14.86
2017-09-28T02:41:36.449Z,14.89
2017-09-28T02:42:36.884Z,15.00
2017-09-28T02:43:37.310Z,14.94
2017-09-28T02:44:37.747Z,14.89
2017-09-28T02:45:38.175Z,14.96
2017-09-28T02:46:38.609Z,14.92
2017-09-28T02:47:39.038Z,14.85
2017-09-28T02:48:39.468Z,14.91
2017-09-28T02:49:39.897Z,14.91
2017-09-28T02:50:40.335Z,14.86
2017-09-28T02:51:40.769Z,14.91
2017-09-28T02:52:41.196Z,14.94
2017-09-28T02:53:41.625Z,14.91
2017-09-28T02:54:42.060Z,14.81
2017-09-28T02:55:42.492Z,14.96
2017-09-28T02:56:42.923Z,14.92
2017-09-28T02:57:43.358Z,14.89
2017-09-28T02:58:43.794Z,14.94
2017-09-28T02:59:44.222Z,14.81
2017-09-28T03:00:44.647Z,14.86
2017-09-28T03:01:45.081Z,14.84
2017-09-28T03:02:45.517Z,14.78
2017-09-28T03:03:45.953Z,14.78
2017-09-28T03:04:46.380Z,14.89
2017-09-28T03:05:46.808Z,14.86
2017-09-28T03:06:47.240Z,14.85
2017-09-28T03:07:47.667Z,14.81
2017-09-28T03:08:48.098Z,14.89
2017-09-28T03:09:48.535Z,14.84
2017-09-28T03:10:48.971Z,14.81
2017-09-28T03:11:49.402Z,14.73
2017-09-28T03:12:49.841Z,14.79
2017-09-28T03:13:50.269Z,14.72
2017-09-28T03:14:50.698Z,14.81
2017-09-28T03:15:51.119Z,14.79
2017-09-28T03:16:51.558Z,14.79
2017-09-28T03:17:51.992Z,14.73
2017-09-28T03:18:52.418Z,14.79
2017-09-28T03:19:52.846Z,14.78
2017-09-28T03:20:53.281Z,14.78
2017-09-28T03:21:53.717Z,14.78
2017-09-28T03:22:54.145Z,14.77
2017-09-28T03:23:54.575Z,14.77
2017-09-28T03:24:55.009Z,14.82
2017-09-28T03:25:55.438Z,14.70
2017-09-28T03:26:55.872Z,14.68
2017-09-28T03:27:56.303Z,14.68
2017-09-28T03:28:56.735Z,14.73
2017-09-28T03:29:57.165Z,14.73
2017-09-28T03:30:57.602Z,14.73
2017-09-28T03:31:58.027Z,14.77
2017-09-28T03:32:58.466Z,14.73
2017-09-28T03:33:58.887Z,14.68
2017-09-28T03:34:59.319Z,14.68
2017-09-28T03:35:59.752Z,14.65
2017-09-28T03:37:00.184Z,14.62
2017-09-28T03:38:00.622Z,14.63
2017-09-28T03:39:01.045Z,14.63
2017-09-28T03:40:01.483Z,14.58
2017-09-28T03:41:01.916Z,14.51
2017-09-28T03:42:02.337Z,14.58
2017-09-28T03:43:02.773Z,14.50
2017-09-28T03:44:03.202Z,14.55
2017-09-28T03:45:03.635Z,14.50
2017-09-28T03:46:04.068Z,14.47
2017-09-28T03:47:04.496Z,14.47
2017-09-28T03:48:04.954Z,14.51
2017-09-28T03:49:05.361Z,14.51
2017-09-28T03:50:05.793Z,14.41
2017-09-28T03:51:06.218Z,14.44
2017-09-28T03:52:06.653Z,14.35
2017-09-28T03:53:07.094Z,14.40
2017-09-28T03:54:07.511Z,14.45
2017-09-28T03:55:07.943Z,14.35
2017-09-28T03:56:08.381Z,14.33
2017-09-28T03:57:08.806Z,14.36
2017-09-28T03:58:09.237Z,14.36
2017-09-28T03:59:09.669Z,14.30
2017-09-28T04:00:10.109Z,14.35
2017-09-28T04:01:10.531Z,14.36
2017-09-28T04:02:10.963Z,14.37
2017-09-28T04:03:11.392Z,14.37
2017-09-28T04:04:11.824Z,14.37
2017-09-28T04:05:12.249Z,14.33
2017-09-28T04:06:12.686Z,14.35
2017-09-28T04:07:13.117Z,14.35
2017-09-28T04:08:13.549Z,14.28
2017-09-28T04:09:13.974Z,14.36
2017-09-28T04:10:14.404Z,14.32
2017-09-28T04:11:14.837Z,14.37
2017-09-28T04:12:15.270Z,14.40
2017-09-28T04:13:15.704Z,14.32
2017-09-28T04:14:16.127Z,14.33
2017-09-28T04:15:16.570Z,14.33
2017-09-28T04:16:17.025Z,14.40
2017-09-28T04:17:17.428Z,14.33
2017-09-28T04:18:17.855Z,14.26
2017-09-28T04:19:18.282Z,14.32
2017-09-28T04:20:18.717Z,14.32
2017-09-28T04:21:19.149Z,14.33
2017-09-28T04:22:19.575Z,14.32
2017-09-28T04:23:20.005Z,14.30
2017-09-28T04:24:20.439Z,14.32
2017-09-28T04:25:20.870Z,14.29
2017-09-28T04:26:21.296Z,14.28
2017-09-28T04:27:21.734Z,14.26
2017-09-28T04:28:22.161Z,14.32
2017-09-28T04:29:22.595Z,14.30
2017-09-28T04:30:23.033Z,14.32
2017-09-28T04:31:23.455Z,14.28
2017-09-28T04:32:23.883Z,14.22
2017-09-28T04:33:24.313Z,14.20
2017-09-28T04:34:24.762Z,14.23
2017-09-28T04:35:25.204Z,14.22
2017-09-28T04:36:25.611Z,14.07
2017-09-28T04:37:26.038Z,14.11
2017-09-28T04:38:26.471Z,14.15
2017-09-28T04:39:26.901Z,14.22
2017-09-28T04:40:27.330Z,14.18
2017-09-28T04:41:27.766Z,14.23
2017-09-28T04:42:28.193Z,14.18
2017-09-28T04:43:28.624Z,14.08
2017-09-28T04:44:29.054Z,14.20
2017-09-28T04:45:29.487Z,14.08
2017-09-28T04:46:29.911Z,14.15
2017-09-28T04:47:30.345Z,14.15
2017-09-28T04:48:30.780Z,14.11
2017-09-28T04:49:31.209Z,14.10
2017-09-28T04:50:31.640Z,14.04
2017-09-28T04:51:32.065Z,14.14
2017-09-28T04:52:32.495Z,14.11
2017-09-28T04:53:32.946Z,14.07
2017-09-28T04:54:33.361Z,14.05
2017-09-28T04:55:33.789Z,14.11
2017-09-28T04:56:34.227Z,14.11
2017-09-28T04:57:34.656Z,14.08
2017-09-28T04:58:35.081Z,14.14
2017-09-28T04:59:35.538Z,14.14
2017-09-28T05:00:35.955Z,14.10
2017-09-28T05:01:36.373Z,14.11
2017-09-28T05:02:36.808Z,14.14
2017-09-28T05:03:37.231Z,14.05
2017-09-28T05:04:37.665Z,14.04
2017-09-28T05:05:38.093Z,14.04
2017-09-28T05:06:38.544Z,14.05
2017-09-28T05:07:38.956Z,14.03
2017-09-28T05:08:39.383Z,14.00
2017-09-28T05:09:39.811Z,14.04
2017-09-28T05:10:40.247Z,13.90
2017-09-28T05:11:40.675Z,14.03
2017-09-28T05:12:41.103Z,13.99
2017-09-28T05:13:41.541Z,13.99
2017-09-28T05:14:41.977Z,14.04
2017-09-28T05:15:42.398Z,13.96
2017-09-28T05:16:42.828Z,13.97
2017-09-28T05:17:43.274Z,13.99
2017-09-28T05:18:43.692Z,13.92
2017-09-28T05:19:44.117Z,13.92
2017-09-28T05:20:44.549Z,14.00
2017-09-28T05:21:44.986Z,13.92
2017-09-28T05:22:45.412Z,14.00
2017-09-28T05:23:45.843Z,13.95
2017-09-28T05:24:46.273Z,13.87
2017-09-28T05:25:46.697Z,13.89
2017-09-28T05:26:47.132Z,13.89
2017-09-28T05:27:47.559Z,13.81
2017-09-28T05:28:47.992Z,13.90
2017-09-28T05:29:48.425Z,13.93
2017-09-28T05:30:48.854Z,13.83
2017-09-28T05:31:49.288Z,13.78
2017-09-28T05:32:49.712Z,13.87
2017-09-28T05:33:50.146Z,13.77
2017-09-28T05:34:50.570Z,13.79
2017-09-28T05:35:51.007Z,13.74
2017-09-28T05:36:51.433Z,13.78
2017-09-28T05:37:51.865Z,13.81
2017-09-28T05:38:52.294Z,13.78
2017-09-28T05:39:52.726Z,13.68
2017-09-28T05:40:53.156Z,13.68
2017-09-28T05:41:53.586Z,13.68
2017-09-28T05:42:54.023Z,13.74
2017-09-28T05:43:54.454Z,13.67
2017-09-28T05:44:54.879Z,13.71
2017-09-28T05:45:55.308Z,13.67
2017-09-28T05:46:55.748Z,13.68
2017-09-28T05:47:56.174Z,13.65
2017-09-28T05:48:56.604Z,13.67
2017-09-28T05:49:57.035Z,13.67
2017-09-28T05:50:57.469Z,13.62
2017-09-28T05:51:57.891Z,13.63
2017-09-28T05:52:58.320Z,13.65
2017-09-28T05:53:58.752Z,13.60
2017-09-28T05:54:59.179Z,13.62
2017-09-28T05:55:59.617Z,13.65
2017-09-28T05:57:00.045Z,13.63
2017-09-28T05:58:00.468Z,13.63
2017-09-28T05:59:00.903Z,13.56
2017-09-28T06:00:01.333Z,13.52
2017-09-28T06:01:01.761Z,13.56
2017-09-28T06:02:02.190Z,13.52
2017-09-28T06:03:02.628Z,13.53
2017-09-28T06:04:03.051Z,13.54
2017-09-28T06:05:03.481Z,13.53
2017-09-28T06:06:03.925Z,13.54
2017-09-28T06:07:04.344Z,13.46
2017-09-28T06:08:04.770Z,13.56
2017-09-28T06:09:05.204Z,13.50
2017-09-28T06:10:05.630Z,13.53
2017-09-28T06:11:06.063Z,13.47
2017-09-28T06:12:06.493Z,13.52
2017-09-28T06:13:06.926Z,13.52
2017-09-28T06:14:07.352Z,13.52
2017-09-28T06:15:07.785Z,13.57
2017-09-28T06:16:08.215Z,13.52
2017-09-28T06:17:08.644Z,13.57
2017-09-28T06:18:09.073Z,13.50
2017-09-28T06:19:09.505Z,13.47
2017-09-28T06:20:09.969Z,13.56
2017-09-28T06:21:10.364Z,13.56
2017-09-28T06:22:10.799Z,13.56
2017-09-28T06:23:11.225Z,13.53
2017-09-28T06:24:11.654Z,13.57
2017-09-28T06:25:12.082Z,13.53
2017-09-28T06:26:12.515Z,13.54
2017-09-28T06:27:12.942Z,13.52
2017-09-28T06:28:14.162Z,13.52
2017-09-28T06:29:13.815Z,13.49
2017-09-28T06:30:14.236Z,13.42
2017-09-28T06:31:14.666Z,13.50
2017-09-28T06:32:15.096Z,13.47
2017-09-28T06:33:15.525Z,13.46
2017-09-28T06:34:15.959Z,13.56
2017-09-28T06:35:16.416Z,13.52
2017-09-28T06:36:16.839Z,13.52
2017-09-28T06:37:17.246Z,13.57
2017-09-28T06:38:17.679Z,13.52
2017-09-28T06:39:18.108Z,13.50
2017-09-28T06:40:18.541Z,13.54
2017-09-28T06:41:18.966Z,13.53
2017-09-28T06:42:19.399Z,13.52
2017-09-28T06:43:19.824Z,13.57
2017-09-28T06:44:20.257Z,13.56
2017-09-28T06:45:20.695Z,13.56
2017-09-28T06:46:21.120Z,13.59
2017-09-28T06:47:21.557Z,13.52
2017-09-28T06:48:21.976Z,13.53
2017-09-28T06:49:22.409Z,13.65
2017-09-28T06:50:22.843Z,13.59
2017-09-28T06:51:23.303Z,13.59
2017-09-28T06:52:23.702Z,13.54
2017-09-28T06:53:24.135Z,13.63
2017-09-28T06:54:24.566Z,13.65
2017-09-28T06:55:24.992Z,13.74
2017-09-28T06:56:25.421Z,13.75
2017-09-28T06:57:25.861Z,13.65
2017-09-28T06:58:26.296Z,13.68
2017-09-28T06:59:26.717Z,13.68
2017-09-28T07:00:27.147Z,13.75
2017-09-28T07:01:27.575Z,13.74
2017-09-28T07:02:28.021Z,13.71
2017-09-28T07:03:28.443Z,13.67
2017-09-28T07:04:28.865Z,13.68
2017-09-28T07:05:29.300Z,13.71
2017-09-28T07:06:29.736Z,13.81
2017-09-28T07:07:30.159Z,13.78
2017-09-28T07:08:30.591Z,13.83
2017-09-28T07:09:31.022Z,13.86
2017-09-28T07:10:31.452Z,13.92
2017-09-28T07:11:31.881Z,13.93
2017-09-28T07:12:32.312Z,14.10
2017-09-28T07:13:32.749Z,14.14
2017-09-28T07:14:33.186Z,14.20
2017-09-28T07:15:33.612Z,14.26
2017-09-28T07:16:34.040Z,14.32
2017-09-28T07:17:34.469Z,14.25
2017-09-28T07:18:34.932Z,14.29
2017-09-28T07:19:35.376Z,14.29
2017-09-28T07:20:35.768Z,14.45
2017-09-28T07:21:36.202Z,14.43
2017-09-28T07:22:36.630Z,14.53
2017-09-28T07:23:37.063Z,14.62
2017-09-28T07:24:37.504Z,14.68
2017-09-28T07:25:37.925Z,14.72
2017-09-28T07:26:38.359Z,14.79
2017-09-28T07:27:38.782Z,14.72
2017-09-28T07:28:39.219Z,14.72
2017-09-28T07:29:39.666Z,14.79
2017-09-28T07:30:40.117Z,14.72
2017-09-28T07:31:40.539Z,14.69
2017-09-28T07:32:40.948Z,14.85
2017-09-28T07:33:41.380Z,14.82
2017-09-28T07:34:41.815Z,15.02
2017-09-28T07:35:42.251Z,14.99
2017-09-28T07:36:42.678Z,15.14
2017-09-28T07:37:43.104Z,15.21
2017-09-28T07:38:43.546Z,15.24
2017-09-28T07:39:43.976Z,15.24
2017-09-28T07:40:45.090Z,15.33
2017-09-28T07:41:44.859Z,15.33
2017-09-28T07:42:45.286Z,15.33
2017-09-28T07:43:45.708Z,15.37
2017-09-28T07:44:46.138Z,15.40
2017-09-28T07:45:46.569Z,15.51
2017-09-28T07:46:47.009Z,15.62
2017-09-28T07:47:47.440Z,15.62
2017-09-28T07:48:47.879Z,15.65
2017-09-28T07:49:48.311Z,15.72
2017-09-28T07:50:48.738Z,15.84
2017-09-28T07:51:49.182Z,15.82
2017-09-28T07:52:49.626Z,15.92
2017-09-28T07:53:50.043Z,16.01
2017-09-28T07:54:50.496Z,16.13
2017-09-28T07:55:50.906Z,15.97
2017-09-28T07:56:51.339Z,16.21
2017-09-28T07:57:51.775Z,16.51
2017-09-28T07:58:52.211Z,16.83
2017-09-28T07:59:52.670Z,17.09
2017-09-28T08:00:53.084Z,17.31
2017-09-28T08:01:53.509Z,17.52
2017-09-28T08:02:53.950Z,17.71
2017-09-28T08:03:54.395Z,18.03
2017-09-28T08:04:54.829Z,18.16
2017-09-28T08:05:55.279Z,17.83
2017-09-28T08:06:55.708Z,17.85
2017-09-28T08:07:56.148Z,18.03
2017-09-28T08:08:56.583Z,17.49
2017-09-28T08:09:57.024Z,17.19
2017-09-28T08:10:57.469Z,17.05
2017-09-28T08:11:57.902Z,16.81
2017-09-28T08:12:58.364Z,16.72
2017-09-28T08:13:58.813Z,16.76
2017-09-28T08:14:59.223Z,16.69
2017-09-28T08:15:59.660Z,16.53
2017-09-28T08:17:00.100Z,16.38
2017-09-28T08:18:00.534Z,16.20
2017-09-28T08:19:00.978Z,16.38
2017-09-28T08:20:01.428Z,16.43
2017-09-28T08:21:01.849Z,16.65
2017-09-28T08:22:02.286Z,16.79
2017-09-28T08:23:02.720Z,17.14
2017-09-28T08:24:03.181Z,17.33
2017-09-28T08:25:03.605Z,17.86
2017-09-28T08:26:04.038Z,18.25
2017-09-28T08:27:04.493Z,18.08
2017-09-28T08:28:04.930Z,17.82
2017-09-28T08:29:05.358Z,17.54
2017-09-28T08:30:05.799Z,17.15
2017-09-28T08:31:06.233Z,17.05
2017-09-28T08:32:06.717Z,17.11
2017-09-28T08:33:07.120Z,17.22
2017-09-28T08:34:07.540Z,17.80
2017-09-28T08:35:07.981Z,18.34
2017-09-28T08:36:08.430Z,18.31
2017-09-28T08:37:08.872Z,18.40
2017-09-28T08:38:09.312Z,18.66
2017-09-28T08:39:09.740Z,18.40
2017-09-28T08:40:10.186Z,18.23
2017-09-28T08:41:10.626Z,18.44
2017-09-28T08:42:11.068Z,18.23
2017-09-28T08:43:11.514Z,18.56
2017-09-28T08:44:11.958Z,18.71
2017-09-28T08:45:12.391Z,19.34
2017-09-28T08:46:12.833Z,19.33
2017-09-28T08:47:13.285Z,19.81
2017-09-28T08:48:13.722Z,20.25
2017-09-28T08:49:14.164Z,20.78
2017-09-28T08:50:14.616Z,21.06
2017-09-28T08:51:15.063Z,21.45
2017-09-28T08:52:15.504Z,21.46
2017-09-28T08:53:15.950Z,22.11
2017-09-28T08:54:16.399Z,22.62
2017-09-28T08:55:16.839Z,22.85
2017-09-28T08:56:17.282Z,23.06
2017-09-28T08:57:17.731Z,22.41
2017-09-28T08:58:18.188Z,22.63
2017-09-28T08:59:18.630Z,22.50
2017-09-28T09:00:19.078Z,22.85
2017-09-28T09:01:19.526Z,21.85
2017-09-28T09:02:19.974Z,21.95
2017-09-28T09:03:20.423Z,22.38
2017-09-28T09:04:20.878Z,21.80
2017-09-28T09:05:21.322Z,22.85
2017-09-28T09:06:21.773Z,23.34
2017-09-28T09:07:22.225Z,22.85
2017-09-28T09:08:22.674Z,23.68
2017-09-28T09:09:23.138Z,24.03
2017-09-28T09:10:23.578Z,24.21
2017-09-28T09:11:24.034Z,23.84
2017-09-28T09:12:24.482Z,23.93
2017-09-28T09:13:24.930Z,23.69
2017-09-28T09:14:25.383Z,23.27
2017-09-28T09:15:25.841Z,23.65
2017-09-28T09:16:26.288Z,24.11
2017-09-28T09:17:26.749Z,23.78
2017-09-28T09:18:27.199Z,23.17
2017-09-28T09:19:27.658Z,22.72
2017-09-28T09:20:28.109Z,22.57
2017-09-28T09:21:28.553Z,22.94
2017-09-28T09:22:29.012Z,23.10
2017-09-28T09:23:29.454Z,23.17
2017-09-28T09:24:29.911Z,23.37
2017-09-28T09:25:30.374Z,23.28
2017-09-28T09:26:30.820Z,23.02
2017-09-28T09:27:31.271Z,22.54
2017-09-28T09:28:31.727Z,22.80
2017-09-28T09:29:32.171Z,22.68
2017-09-28T09:30:32.636Z,23.41
2017-09-28T09:31:33.081Z,23.96
2017-09-28T09:32:33.533Z,23.95
2017-09-28T09:33:34.128Z,24.18
2017-09-28T09:34:34.434Z,23.95
2017-09-28T09:35:34.891Z,24.30
2017-09-28T09:36:35.347Z,24.42
2017-09-28T09:37:35.794Z,24.39
2017-09-28T09:38:36.252Z,24.33
2017-09-28T09:39:36.706Z,24.69
2017-09-28T09:40:37.158Z,25.44
2017-09-28T09:41:37.614Z,25.59
2017-09-28T09:42:38.086Z,25.53
2017-09-28T09:43:38.526Z,25.04
2017-09-28T09:44:38.983Z,25.59
2017-09-28T09:45:39.432Z,26.13
2017-09-28T09:46:39.890Z,26.85
2017-09-28T09:47:40.340Z,26.21
2017-09-28T09:48:40.799Z,25.81
2017-09-28T09:49:41.252Z,26.02
2017-09-28T09:50:41.710Z,26.63
2017-09-28T09:51:42.165Z,26.48
2017-09-28T09:52:42.625Z,25.90
2017-09-28T09:53:43.081Z,26.16
2017-09-28T09:54:43.537Z,25.96
2017-09-28T09:55:43.993Z,25.41
2017-09-28T09:56:44.451Z,25.46
2017-09-28T09:57:44.909Z,26.19
2017-09-28T09:58:45.364Z,27.14
2017-09-28T09:59:45.822Z,25.96
2017-09-28T10:00:46.286Z,25.13
2017-09-28T10:01:46.737Z,25.83
2017-09-28T10:02:47.198Z,25.84
2017-09-28T10:03:47.654Z,26.83
2017-09-28T10:04:48.115Z,26.78
2017-09-28T10:05:48.571Z,25.65
2017-09-28T10:06:49.032Z,25.38
2017-09-28T10:07:49.486Z,24.65
2017-09-28T10:08:49.943Z,24.60
2017-09-28T10:09:50.401Z,24.60
2017-09-28T10:10:50.861Z,24.43
2017-09-28T10:11:51.323Z,25.29
2017-09-28T10:12:51.778Z,24.85
2017-09-28T10:13:52.233Z,26.02
2017-09-28T10:14:52.689Z,25.96
2017-09-28T10:15:53.146Z,26.51
2017-09-28T10:16:53.602Z,25.91
2017-09-28T10:17:54.063Z,26.25
2017-09-28T10:18:54.520Z,26.66
2017-09-28T10:19:54.980Z,26.48
2017-09-28T10:20:55.436Z,25.69
2017-09-28T10:21:55.900Z,26.45
2017-09-28T10:22:56.352Z,26.93
2017-09-28T10:23:56.816Z,27.49
2017-09-28T10:24:57.288Z,28.10
2017-09-28T10:25:57.732Z,28.07
2017-09-28T10:26:58.187Z,28.30
2017-09-28T10:27:58.668Z,28.84
2017-09-28T10:28:59.102Z,29.16
2017-09-28T10:29:59.573Z,29.19
2017-09-28T10:31:00.025Z,27.96
2017-09-28T10:32:00.477Z,26.85
2017-09-28T10:33:00.942Z,26.43
2017-09-28T10:34:01.404Z,25.51
2017-09-28T10:35:01.869Z,26.00
2017-09-28T10:36:02.316Z,25.90
2017-09-28T10:37:02.778Z,24.68
2017-09-28T10:38:03.257Z,25.85
2017-09-28T10:39:03.693Z,26.33
2017-09-28T10:40:04.163Z,26.96
2017-09-28T10:41:04.612Z,27.47
2017-09-28T10:42:05.072Z,26.93
2017-09-28T10:43:05.536Z,26.63
2017-09-28T10:44:05.987Z,25.77
2017-09-28T10:45:06.444Z,26.18
2017-09-28T10:46:06.903Z,26.28
2017-09-28T10:47:07.360Z,25.60
2017-09-28T10:48:07.817Z,24.51
2017-09-28T10:49:08.327Z,23.96
2017-09-28T10:50:08.731Z,23.28
2017-09-28T10:51:09.187Z,23.25
2017-09-28T10:52:09.645Z,23.12
2017-09-28T10:53:10.103Z,23.41
2017-09-28T10:54:10.559Z,23.66
2017-09-28T10:55:11.019Z,23.88
2017-09-28T10:56:11.469Z,24.14
2017-09-28T10:57:11.927Z,23.62
2017-09-28T10:58:12.383Z,23.80
2017-09-28T10:59:12.839Z,24.40
2017-09-28T11:00:13.293Z,24.96
2017-09-28T11:01:13.746Z,24.21
2017-09-28T11:02:14.198Z,24.42
2017-09-28T11:03:14.657Z,24.89
2017-09-28T11:04:15.110Z,24.20
2017-09-28T11:05:15.566Z,24.14
2017-09-28T11:06:16.022Z,24.61
2017-09-28T11:07:16.473Z,25.13
2017-09-28T11:08:16.937Z,24.95
2017-09-28T11:09:17.385Z,24.76
2017-09-28T11:10:17.842Z,24.69
2017-09-28T11:11:18.297Z,23.54
2017-09-28T11:12:18.753Z,23.15
2017-09-28T11:13:19.205Z,23.46
2017-09-28T11:14:19.662Z,23.46
2017-09-28T11:15:20.112Z,23.84
2017-09-28T11:16:20.563Z,24.23
2017-09-28T11:17:21.809Z,24.28
2017-09-28T11:18:21.490Z,22.83
2017-09-28T11:19:21.928Z,23.08
2017-09-28T11:20:22.393Z,22.39
2017-09-28T11:21:22.842Z,22.53
2017-09-28T11:22:23.286Z,22.91
2017-09-28T11:23:23.752Z,23.00
2017-09-28T11:24:24.187Z,23.05
2017-09-28T11:25:24.638Z,23.10
2017-09-28T11:26:25.091Z,23.44
2017-09-28T11:27:25.548Z,23.40
2017-09-28T11:28:25.991Z,22.87
2017-09-28T11:29:26.457Z,22.69
2017-09-28T11:30:26.910Z,23.10
2017-09-28T11:31:27.348Z,23.51
2017-09-28T11:32:27.801Z,23.84
2017-09-28T11:33:30.835Z,24.14
2017-09-28T11:34:28.703Z,24.32
2017-09-28T11:35:29.158Z,24.45
2017-09-28T11:36:29.628Z,24.55
2017-09-28T11:37:30.066Z,24.63
2017-09-28T11:38:30.514Z,24.53
2017-09-28T11:39:30.972Z,24.03
2017-09-28T11:40:31.433Z,23.41
2017-09-28T11:41:31.873Z,22.66
2017-09-28T11:42:32.322Z,22.55
2017-09-28T11:43:32.776Z,22.53
2017-09-28T11:44:33.216Z,22.66
2017-09-28T11:45:33.672Z,22.75
2017-09-28T11:46:34.117Z,22.63
2017-09-28T11:47:34.573Z,21.83
2017-09-28T11:48:35.012Z,21.55
2017-09-28T11:49:35.460Z,21.11
2017-09-28T11:50:35.908Z,21.00
2017-09-28T11:51:36.358Z,20.80
2017-09-28T11:52:36.803Z,20.52
2017-09-28T11:53:37.252Z,20.72
2017-09-28T11:54:37.702Z,20.85
2017-09-28T11:55:38.141Z,21.03
2017-09-28T11:56:38.592Z,21.15
2017-09-28T11:57:39.031Z,21.03
2017-09-28T11:58:39.478Z,20.75
2017-09-28T11:59:39.921Z,20.74
2017-09-28T12:00:40.373Z,20.72
2017-09-28T12:01:40.819Z,20.50
2017-09-28T12:02:41.263Z,20.65
2017-09-28T12:03:41.696Z,20.66
2017-09-28T12:04:42.138Z,20.52
2017-09-28T12:05:42.588Z,20.28
2017-09-28T12:06:43.030Z,20.10
2017-09-28T12:07:43.472Z,20.13
2017-09-28T12:08:43.914Z,20.09
2017-09-28T12:09:44.356Z,20.22
2017-09-28T12:10:44.793Z,20.51
2017-09-28T12:11:45.244Z,20.69
2017-09-28T12:12:45.682Z,20.75
2017-09-28T12:13:46.125Z,20.75
2017-09-28T12:14:46.565Z,20.67
2017-09-28T12:15:47.012Z,20.78
2017-09-28T12:16:47.455Z,20.97
2017-09-28T12:17:47.887Z,21.14
2017-09-28T12:18:48.334Z,21.30
2017-09-28T12:19:48.792Z,21.33
2017-09-28T12:20:49.216Z,21.48
2017-09-28T12:21:49.661Z,21.30
2017-09-28T12:22:50.104Z,21.20
2017-09-28T12:23:50.547Z,21.15
2017-09-28T12:24:50.989Z,21.24
2017-09-28T12:25:51.428Z,21.27
2017-09-28T12:26:51.868Z,21.30
2017-09-28T12:27:52.317Z,21.21
2017-09-28T12:28:52.753Z,21.21
2017-09-28T12:29:53.202Z,21.37
2017-09-28T12:30:53.642Z,21.36
2017-09-28T12:31:54.082Z,21.17
2017-09-28T12:32:54.519Z,20.96
2017-09-28T12:33:54.982Z,20.97
2017-09-28T12:34:55.412Z,21.02
2017-09-28T12:35:55.849Z,21.12
2017-09-28T12:36:56.294Z,21.21
2017-09-28T12:37:56.733Z,21.40
2017-09-28T12:38:57.178Z,21.61
2017-09-28T12:39:57.671Z,21.51
2017-09-28T12:40:58.061Z,21.46
2017-09-28T12:41:58.501Z,21.42
2017-09-28T12:42:58.947Z,21.29
2017-09-28T12:43:59.398Z,21.35
2017-09-28T12:44:59.829Z,21.52
2017-09-28T12:46:00.272Z,21.70
2017-09-28T12:47:00.716Z,21.61
2017-09-28T12:48:01.196Z,21.62
2017-09-28T12:49:01.605Z,21.58
2017-09-28T12:50:02.050Z,21.39
2017-09-28T12:51:02.483Z,21.48
2017-09-28T12:52:02.925Z,21.40
2017-09-28T12:53:03.372Z,21.60
2017-09-28T12:54:03.816Z,21.48
2017-09-28T12:55:04.258Z,21.55
2017-09-28T12:56:04.696Z,21.46
2017-09-28T12:57:05.144Z,21.29
2017-09-28T12:58:05.587Z,21.29